createdAt,value
2018-12-13T00:01:09.251Z,18.17
2018-12-13T00:03:55.085Z,19.00
2018-12-13T00:06:57.348Z,15.50
2018-12-13T00:09:48.892Z,17.80
2018-12-13T00:12:31.203Z,17.90
2018-12-13T00:15:12.805Z,19.20
2018-12-13T00:20:22.907Z,18.20
2018-12-13T00:23:14.841Z,23.20
2018-12-13T00:26:00.613Z,19.17
2018-12-13T00:28:41.842Z,17.23
2018-12-13T00:31:26.241Z,17.97
2018-12-13T00:34:31.570Z,17.83
2018-12-13T00:37:10.161Z,17.50
2018-12-13T00:39:50.901Z,17.90
2018-12-13T00:42:31.007Z,17.27
2018-12-13T00:45:04.469Z,16.70
2018-12-13T00:47:36.060Z,17.83
2018-12-13T00:50:16.916Z,17.90
2018-12-13T00:55:38.037Z,16.57
2018-12-13T00:58:28.752Z,18.40
2018-12-13T01:01:14.945Z,16.60
2018-12-13T01:03:53.126Z,17.00
2018-12-13T01:06:33.454Z,18.83
2018-12-13T01:09:16.411Z,15.57
2018-12-13T01:12:01.749Z,15.83
2018-12-13T01:14:51.282Z,15.77
2018-12-13T01:17:31.026Z,15.27
2018-12-13T01:20:08.782Z,14.83
2018-12-13T01:22:52.696Z,15.97
2018-12-13T01:25:32.504Z,16.30
2018-12-13T01:28:16.457Z,16.30
2018-12-13T01:30:55.963Z,16.70
2018-12-13T01:33:40.067Z,15.37
2018-12-13T01:36:23.862Z,13.80
2018-12-13T01:39:14.744Z,15.10
2018-12-13T01:44:56.093Z,16.70
2018-12-13T01:47:39.830Z,15.33
2018-12-13T01:50:19.695Z,14.60
2018-12-13T01:53:12.144Z,15.40
2018-12-13T01:55:54.849Z,13.50
2018-12-13T01:58:36.836Z,13.73
2018-12-13T02:01:41.375Z,14.37
2018-12-13T02:07:21.286Z,14.20
2018-12-13T02:10:00.674Z,14.80
2018-12-13T02:13:11.272Z,15.53
2018-12-13T02:15:54.892Z,14.93
2018-12-13T02:18:30.812Z,14.23
2018-12-13T02:21:08.443Z,15.13
2018-12-13T02:23:51.960Z,13.90
2018-12-13T02:29:15.455Z,14.67
2018-12-13T02:31:58.483Z,16.97
2018-12-13T02:34:39.702Z,15.90
2018-12-13T02:37:14.176Z,15.43
2018-12-13T02:39:58.576Z,16.33
2018-12-13T02:42:37.663Z,15.40
2018-12-13T02:45:17.504Z,15.90
2018-12-13T02:48:03.451Z,15.53
2018-12-13T02:50:56.752Z,15.63
2018-12-13T02:53:28.993Z,15.00
2018-12-13T02:56:10.583Z,16.40
2018-12-13T03:01:56.642Z,15.07
2018-12-13T03:05:00.723Z,17.77
2018-12-13T03:07:35.419Z,16.97
2018-12-13T03:10:09.765Z,16.53
2018-12-13T03:12:47.334Z,16.40
2018-12-13T03:15:26.010Z,17.77
2018-12-13T03:17:58.755Z,17.60
2018-12-13T03:20:30.822Z,17.83
2018-12-13T03:23:13.741Z,19.23
2018-12-13T03:25:50.690Z,16.87
2018-12-13T03:28:29.326Z,18.60
2018-12-13T03:31:16.899Z,19.47
2018-12-13T03:33:55.296Z,17.33
2018-12-13T03:36:31.486Z,18.07
2018-12-13T03:39:18.305Z,18.80
2018-12-13T03:42:00.178Z,17.93
2018-12-13T03:44:34.259Z,18.37
2018-12-13T03:47:09.655Z,19.17
2018-12-13T03:49:44.722Z,19.33
2018-12-13T03:52:24.783Z,17.77
2018-12-13T03:55:00.260Z,20.82
2018-12-13T03:57:51.442Z,18.40
2018-12-13T04:00:32.626Z,16.90
2018-12-13T04:03:14.335Z,18.27
2018-12-13T04:05:57.921Z,18.17
2018-12-13T04:08:36.796Z,17.87
2018-12-13T04:11:12.333Z,17.60
2018-12-13T04:13:51.512Z,18.03
2018-12-13T04:16:31.339Z,18.80
2018-12-13T04:19:13.083Z,17.63
2018-12-13T04:21:59.182Z,17.70
2018-12-13T04:24:39.352Z,18.97
2018-12-13T04:30:09.108Z,17.17
2018-12-13T04:32:53.363Z,17.97
2018-12-13T04:35:37.902Z,17.40
2018-12-13T04:38:17.129Z,19.10
2018-12-13T04:44:09.902Z,18.80
2018-12-13T04:46:46.210Z,18.83
2018-12-13T04:49:21.071Z,17.93
2018-12-13T04:51:59.534Z,18.90
2018-12-13T04:54:44.101Z,17.03
2018-12-13T04:57:24.064Z,20.67
2018-12-13T05:00:12.412Z,18.30
2018-12-13T05:02:58.551Z,17.83
2018-12-13T05:05:43.921Z,19.60
2018-12-13T05:08:27.471Z,18.70
2018-12-13T05:11:11.634Z,19.63
2018-12-13T05:13:56.900Z,19.27
2018-12-13T05:16:41.638Z,20.30
2018-12-13T05:19:37.646Z,20.57
2018-12-13T05:22:40.211Z,20.13
2018-12-13T05:25:34.464Z,18.80
2018-12-13T05:28:38.171Z,19.90
2018-12-13T05:31:39.351Z,20.05
2018-12-13T05:34:55.332Z,18.87
2018-12-13T05:37:48.334Z,17.03
2018-12-13T05:40:44.173Z,17.97
2018-12-13T05:43:29.666Z,17.57
2018-12-13T05:46:12.374Z,19.98
2018-12-13T05:49:10.143Z,17.77
2018-12-13T07:59:11.539Z,18.37
2018-12-13T08:05:13.285Z,15.73
2018-12-13T08:07:59.875Z,15.63
2018-12-13T08:11:13.590Z,16.57
2018-12-13T08:14:06.613Z,18.00
2018-12-13T08:17:06.364Z,16.00
2018-12-13T08:28:28.666Z,16.00
2018-12-13T08:31:19.378Z,17.03
2018-12-13T08:34:14.915Z,17.63
2018-12-13T08:37:05.232Z,16.60
2018-12-13T08:39:51.273Z,18.03
2018-12-13T08:42:33.039Z,16.87
2018-12-13T08:45:30.746Z,16.10
2018-12-13T08:51:19.710Z,18.60
2018-12-13T08:54:11.951Z,18.10
2018-12-13T09:00:11.457Z,17.53
2018-12-13T09:03:07.375Z,17.30
2018-12-13T09:09:05.025Z,17.60
2018-12-13T09:12:18.406Z,19.70
2018-12-13T09:18:18.536Z,16.67
2018-12-13T09:21:09.676Z,16.63
2018-12-13T09:32:46.264Z,16.80
2018-12-13T09:44:43.674Z,13.70
2018-12-13T09:47:32.353Z,14.90
2018-12-13T09:50:47.355Z,16.63
2018-12-13T10:02:09.526Z,13.60
2018-12-13T10:04:58.873Z,15.15
2018-12-13T10:07:47.665Z,14.20
2018-12-13T10:10:47.765Z,14.13
2018-12-13T10:13:38.949Z,15.00
2018-12-13T10:16:33.005Z,12.83
2018-12-13T10:26:57.690Z,11.53
2018-12-13T10:30:09.907Z,13.90
2018-12-13T10:32:55.322Z,13.40
2018-12-13T10:39:10.850Z,13.03
2018-12-13T10:42:27.864Z,13.97
2018-12-13T10:53:40.514Z,14.40
2018-12-13T10:56:32.435Z,14.18
2018-12-13T10:59:29.445Z,13.67
2018-12-13T11:09:37.243Z,13.07
2018-12-13T11:12:42.986Z,10.37
2018-12-13T11:15:34.677Z,10.70
2018-12-13T11:18:34.615Z,12.07
2018-12-13T11:21:45.456Z,8.87
2018-12-13T11:28:38.005Z,11.37
2018-12-13T11:31:37.165Z,10.30
2018-12-13T11:35:17.396Z,9.70
2018-12-13T11:41:48.481Z,11.07
2018-12-13T12:15:30.698Z,10.77
2018-12-13T12:18:23.013Z,9.83
2018-12-13T12:25:27.240Z,10.90
2018-12-13T12:31:16.247Z,10.73
2018-12-13T12:38:18.401Z,8.97
2018-12-13T12:41:23.815Z,10.00
2018-12-13T12:48:48.387Z,9.87
2018-12-13T12:52:00.316Z,9.33
2018-12-13T13:06:51.025Z,11.83
2018-12-13T13:09:49.011Z,11.13
2018-12-13T13:12:40.168Z,10.33
2018-12-13T13:17:57.225Z,10.05
2018-12-13T13:20:45.201Z,10.10
2018-12-13T13:24:40.425Z,10.47
2018-12-13T13:31:03.367Z,9.40
2018-12-13T13:33:49.168Z,10.13
2018-12-13T13:40:38.436Z,10.37
2018-12-13T13:43:41.932Z,13.10
2018-12-13T13:47:32.206Z,11.90
2018-12-13T13:50:27.937Z,11.28
2018-12-13T13:53:27.275Z,10.97
2018-12-13T13:56:23.775Z,11.53
2018-12-13T14:02:26.744Z,11.80
2018-12-13T14:05:27.759Z,11.87
2018-12-13T14:08:26.948Z,10.93
2018-12-13T14:11:25.243Z,11.30
2018-12-13T14:14:23.515Z,11.73
2018-12-13T14:29:48.294Z,11.53
2018-12-13T14:35:44.629Z,11.03
2018-12-13T14:38:42.969Z,10.27
2018-12-13T14:41:37.031Z,12.30
2018-12-13T14:45:21.328Z,11.60
2018-12-13T14:54:13.378Z,13.13
2018-12-13T14:57:14.045Z,12.97
2018-12-13T15:00:22.526Z,13.17
2018-12-13T15:03:09.458Z,12.13
2018-12-13T15:06:16.369Z,12.23
2018-12-13T15:12:18.136Z,12.10
2018-12-13T15:22:16.636Z,10.33
2018-12-13T15:25:05.990Z,12.83
2018-12-13T15:28:02.038Z,11.27
2018-12-13T15:30:54.047Z,14.33
2018-12-13T15:37:14.798Z,12.70
2018-12-13T15:43:36.838Z,12.77
2018-12-13T15:46:30.548Z,14.03
2018-12-13T15:49:33.148Z,12.80
2018-12-13T15:52:37.277Z,12.70
2018-12-13T15:55:41.080Z,12.70
2018-12-13T15:59:39.108Z,15.57
2018-12-13T16:14:07.320Z,13.77
2018-12-13T16:17:12.955Z,12.93
2018-12-13T16:19:54.016Z,11.17
2018-12-13T17:05:32.273Z,11.47
2018-12-13T17:08:47.559Z,12.60
2018-12-13T17:16:10.054Z,11.57
2018-12-13T19:48:02.045Z,13.40
2018-12-13T20:04:11.991Z,14.27
2018-12-13T20:12:17.929Z,13.60
2018-12-13T20:15:48.303Z,14.20
2018-12-13T20:18:46.698Z,13.70
2018-12-13T20:21:47.283Z,16.20
2018-12-13T20:30:02.086Z,15.17
2018-12-13T20:33:06.366Z,17.37
2018-12-13T20:36:00.553Z,17.60
2018-12-13T20:56:26.579Z,16.23
2018-12-13T21:02:10.826Z,18.10
2018-12-13T21:07:42.408Z,18.03
2018-12-13T21:10:23.225Z,18.50
2018-12-13T21:13:22.235Z,19.43
2018-12-13T21:16:19.456Z,15.10
2018-12-13T21:19:08.597Z,18.53
2018-12-13T21:21:47.510Z,15.63
2018-12-13T21:24:24.428Z,16.33
2018-12-13T21:44:12.936Z,16.97
2018-12-13T21:48:13.065Z,16.43
2018-12-13T22:00:27.912Z,14.60
2018-12-13T22:17:45.744Z,20.50
2018-12-13T22:30:48.221Z,16.67
2018-12-13T22:52:02.752Z,17.67
2018-12-13T22:54:58.502Z,18.83
2018-12-13T22:57:54.388Z,18.10
2018-12-13T23:00:47.077Z,19.03
2018-12-13T23:03:45.211Z,16.47
